sensor_id;sensor_type;location;lat;lon;timestamp;pressure;altitude;pressure_sealevel;temperature;humidity
25526;BME280;13424;48.424;11.258;2023-03-01T00:01:27;96182.38;;;3.99;63.24
25526;BME280;13424;48.424;11.258;2023-03-01T00:03:54;96177.78;;;3.72;64.72
25526;BME280;13424;48.424;11.258;2023-03-01T00:06:20;96178.00;;;4.06;63.80
25526;BME280;13424;48.424;11.258;2023-03-01T00:08:46;96181.59;;;3.69;64.66
25526;BME280;13424;48.424;11.258;2023-03-01T00:11:20;96175.59;;;3.90;64.00
25526;BME280;13424;48.424;11.258;2023-03-01T00:13:49;96179.03;;;3.76;64.43
25526;BME280;13424;48.424;11.258;2023-03-01T00:16:24;96172.72;;;4.06;63.29
25526;BME280;13424;48.424;11.258;2023-03-01T00:18:50;96179.03;;;4.05;63.59
25526;BME280;13424;48.424;11.258;2023-03-01T00:21:17;96170.56;;;3.95;64.07
25526;BME280;13424;48.424;11.258;2023-03-01T00:23:43;96178.03;;;3.77;64.40
25526;BME280;13424;48.424;11.258;2023-03-01T00:26:12;96171.94;;;3.47;65.39
25526;BME280;13424;48.424;11.258;2023-03-01T00:28:40;96161.28;;;3.55;65.03
25526;BME280;13424;48.424;11.258;2023-03-01T00:34:49;96159.94;;;3.44;65.07
25526;BME280;13424;48.424;11.258;2023-03-01T00:37:28;96158.81;;;4.12;63.80
25526;BME280;13424;48.424;11.258;2023-03-01T00:39:54;96160.56;;;3.61;64.73
25526;BME280;13424;48.424;11.258;2023-03-01T00:42:24;96154.28;;;3.62;64.94
25526;BME280;13424;48.424;11.258;2023-03-01T00:44:49;96158.25;;;4.38;63.36
25526;BME280;13424;48.424;11.258;2023-03-01T00:47:15;96154.56;;;4.54;62.41
25526;BME280;13424;48.424;11.258;2023-03-01T00:49:41;96142.38;;;3.81;63.90
25526;BME280;13424;48.424;11.258;2023-03-01T00:52:07;96142.47;;;3.73;64.89
25526;BME280;13424;48.424;11.258;2023-03-01T00:54:33;96145.38;;;3.63;65.14
25526;BME280;13424;48.424;11.258;2023-03-01T00:56:58;96142.09;;;3.76;64.63
25526;BME280;13424;48.424;11.258;2023-03-01T00:59:26;96134.59;;;3.94;63.87
25526;BME280;13424;48.424;11.258;2023-03-01T01:01:51;96134.13;;;4.05;63.79
25526;BME280;13424;48.424;11.258;2023-03-01T01:04:17;96134.75;;;3.27;66.03
25526;BME280;13424;48.424;11.258;2023-03-01T01:06:45;96133.41;;;4.11;63.04
25526;BME280;13424;48.424;11.258;2023-03-01T01:09:16;96130.88;;;4.03;63.29
25526;BME280;13424;48.424;11.258;2023-03-01T01:11:48;96134.88;;;3.99;63.01
25526;BME280;13424;48.424;11.258;2023-03-01T01:14:15;96122.31;;;4.01;63.34
25526;BME280;13424;48.424;11.258;2023-03-01T01:17:22;96121.34;;;4.24;62.81
25526;BME280;13424;48.424;11.258;2023-03-01T01:19:48;96121.84;;;4.12;62.92
25526;BME280;13424;48.424;11.258;2023-03-01T01:22:14;96124.28;;;4.14;63.12
25526;BME280;13424;48.424;11.258;2023-03-01T01:24:45;96129.25;;;4.24;63.05
25526;BME280;13424;48.424;11.258;2023-03-01T01:27:11;96115.97;;;3.96;63.33
25526;BME280;13424;48.424;11.258;2023-03-01T01:29:37;96106.63;;;4.14;63.33
25526;BME280;13424;48.424;11.258;2023-03-01T01:32:54;96107.22;;;3.95;63.73
25526;BME280;13424;48.424;11.258;2023-03-01T01:35:20;96103.81;;;3.80;63.93
25526;BME280;13424;48.424;11.258;2023-03-01T01:37:46;96101.81;;;3.52;64.44
25526;BME280;13424;48.424;11.258;2023-03-01T01:40:14;96099.72;;;3.62;64.36
25526;BME280;13424;48.424;11.258;2023-03-01T01:42:39;96095.13;;;3.86;64.15
25526;BME280;13424;48.424;11.258;2023-03-01T01:45:38;96097.31;;;4.18;62.92
25526;BME280;13424;48.424;11.258;2023-03-01T01:48:13;96097.06;;;3.62;64.64
25526;BME280;13424;48.424;11.258;2023-03-01T01:50:41;96099.13;;;4.18;63.73
25526;BME280;13424;48.424;11.258;2023-03-01T01:53:16;96092.78;;;4.34;63.16
25526;BME280;13424;48.424;11.258;2023-03-01T01:55:47;96097.72;;;4.37;62.92
25526;BME280;13424;48.424;11.258;2023-03-01T01:58:17;96099.09;;;4.11;63.85
25526;BME280;13424;48.424;11.258;2023-03-01T02:00:43;96098.44;;;4.09;63.71
25526;BME280;13424;48.424;11.258;2023-03-01T02:03:16;96094.16;;;4.08;63.68
25526;BME280;13424;48.424;11.258;2023-03-01T02:08:37;96085.97;;;3.82;64.11
25526;BME280;13424;48.424;11.258;2023-03-01T02:11:04;96085.06;;;4.11;63.72
25526;BME280;13424;48.424;11.258;2023-03-01T02:13:33;96092.03;;;3.97;63.83
25526;BME280;13424;48.424;11.258;2023-03-01T02:16:05;96087.09;;;3.94;63.83
25526;BME280;13424;48.424;11.258;2023-03-01T02:18:33;96083.81;;;3.92;64.07
25526;BME280;13424;48.424;11.258;2023-03-01T02:21:38;96076.25;;;3.53;65.27
25526;BME280;13424;48.424;11.258;2023-03-01T02:26:55;96069.63;;;3.57;65.40
25526;BME280;13424;48.424;11.258;2023-03-01T02:29:23;96070.72;;;3.48;65.30
25526;BME280;13424;48.424;11.258;2023-03-01T02:35:56;96076.19;;;2.49;67.73
25526;BME280;13424;48.424;11.258;2023-03-01T02:38:22;96071.75;;;3.32;66.24
25526;BME280;13424;48.424;11.258;2023-03-01T02:40:50;96069.34;;;3.67;65.22
25526;BME280;13424;48.424;11.258;2023-03-01T02:43:16;96062.88;;;3.54;64.87
25526;BME280;13424;48.424;11.258;2023-03-01T02:45:50;96073.44;;;3.54;65.16
25526;BME280;13424;48.424;11.258;2023-03-01T02:48:16;96072.94;;;3.80;64.83
25526;BME280;13424;48.424;11.258;2023-03-01T02:51:12;96067.34;;;3.54;65.11
25526;BME280;13424;48.424;11.258;2023-03-01T02:54:28;96061.59;;;3.65;64.66
25526;BME280;13424;48.424;11.258;2023-03-01T02:56:56;96069.75;;;3.34;65.76
25526;BME280;13424;48.424;11.258;2023-03-01T02:59:29;96056.66;;;3.26;65.98
25526;BME280;13424;48.424;11.258;2023-03-01T03:01:56;96049.84;;;3.02;66.44
25526;BME280;13424;48.424;11.258;2023-03-01T03:04:22;96060.91;;;2.97;66.55
25526;BME280;13424;48.424;11.258;2023-03-01T03:06:50;96053.28;;;3.32;65.29
25526;BME280;13424;48.424;11.258;2023-03-01T03:09:17;96061.47;;;3.22;65.55
25526;BME280;13424;48.424;11.258;2023-03-01T03:11:43;96054.09;;;3.18;65.54
25526;BME280;13424;48.424;11.258;2023-03-01T03:14:12;96054.44;;;3.00;66.18
25526;BME280;13424;48.424;11.258;2023-03-01T03:16:42;96048.56;;;3.27;65.46
25526;BME280;13424;48.424;11.258;2023-03-01T03:19:09;96050.28;;;3.35;65.28
25526;BME280;13424;48.424;11.258;2023-03-01T03:21:35;96046.19;;;3.32;65.23
25526;BME280;13424;48.424;11.258;2023-03-01T03:24:02;96050.19;;;3.43;65.14
25526;BME280;13424;48.424;11.258;2023-03-01T03:26:28;96031.72;;;3.14;65.14
25526;BME280;13424;48.424;11.258;2023-03-01T03:33:00;96037.25;;;2.22;67.37
25526;BME280;13424;48.424;11.258;2023-03-01T03:35:29;96054.97;;;2.66;66.75
25526;BME280;13424;48.424;11.258;2023-03-01T03:37:57;96047.63;;;2.61;67.76
25526;BME280;13424;48.424;11.258;2023-03-01T03:40:38;96047.66;;;3.05;65.68
25526;BME280;13424;48.424;11.258;2023-03-01T03:43:09;96042.75;;;2.50;66.70
25526;BME280;13424;48.424;11.258;2023-03-01T03:45:36;96047.31;;;3.08;65.33
25526;BME280;13424;48.424;11.258;2023-03-01T03:48:03;96040.03;;;2.20;67.33
25526;BME280;13424;48.424;11.258;2023-03-01T03:50:30;96045.09;;;3.12;65.33
25526;BME280;13424;48.424;11.258;2023-03-01T03:52:56;96032.84;;;3.04;65.10
25526;BME280;13424;48.424;11.258;2023-03-01T03:55:22;96034.91;;;2.65;66.40
25526;BME280;13424;48.424;11.258;2023-03-01T03:57:48;96033.22;;;2.49;67.11
25526;BME280;13424;48.424;11.258;2023-03-01T04:00:20;96028.22;;;2.39;66.92
25526;BME280;13424;48.424;11.258;2023-03-01T04:02:47;96025.84;;;2.44;67.31
25526;BME280;13424;48.424;11.258;2023-03-01T04:05:16;96023.41;;;2.43;67.00
25526;BME280;13424;48.424;11.258;2023-03-01T04:07:43;96022.97;;;2.39;66.29
25526;BME280;13424;48.424;11.258;2023-03-01T04:10:13;96021.78;;;1.73;68.76
25526;BME280;13424;48.424;11.258;2023-03-01T04:12:39;96015.75;;;2.71;65.85
25526;BME280;13424;48.424;11.258;2023-03-01T04:15:07;96012.28;;;2.18;67.64
25526;BME280;13424;48.424;11.258;2023-03-01T04:17:47;96015.09;;;1.93;67.82
25526;BME280;13424;48.424;11.258;2023-03-01T04:21:07;96013.00;;;1.58;68.49
25526;BME280;13424;48.424;11.258;2023-03-01T04:23:33;96012.03;;;1.59;68.69
25526;BME280;13424;48.424;11.258;2023-03-01T04:25:59;96011.88;;;1.60;68.46
25526;BME280;13424;48.424;11.258;2023-03-01T04:28:34;96014.34;;;1.85;67.91
25526;BME280;13424;48.424;11.258;2023-03-01T04:31:07;96007.88;;;2.33;66.17
25526;BME280;13424;48.424;11.258;2023-03-01T04:33:43;96001.53;;;2.42;65.87
25526;BME280;13424;48.424;11.258;2023-03-01T04:36:10;96010.41;;;1.81;67.75
25526;BME280;13424;48.424;11.258;2023-03-01T04:38:37;96007.22;;;2.31;65.96
25526;BME280;13424;48.424;11.258;2023-03-01T04:41:06;96001.41;;;1.75;67.86
25526;BME280;13424;48.424;11.258;2023-03-01T04:43:32;96002.47;;;1.66;67.98
25526;BME280;13424;48.424;11.258;2023-03-01T04:46:20;96003.00;;;1.84;67.61
25526;BME280;13424;48.424;11.258;2023-03-01T04:48:46;96002.47;;;1.66;68.74
25526;BME280;13424;48.424;11.258;2023-03-01T04:51:15;96001.28;;;2.14;66.86
25526;BME280;13424;48.424;11.258;2023-03-01T04:53:42;95999.59;;;1.53;68.12
25526;BME280;13424;48.424;11.258;2023-03-01T04:56:08;96005.31;;;1.79;67.45
25526;BME280;13424;48.424;11.258;2023-03-01T04:58:40;96002.31;;;1.90;67.28
25526;BME280;13424;48.424;11.258;2023-03-01T05:01:11;95994.81;;;1.79;67.35
25526;BME280;13424;48.424;11.258;2023-03-01T05:03:42;95999.38;;;1.85;67.07
25526;BME280;13424;48.424;11.258;2023-03-01T05:06:08;95995.38;;;1.89;66.96
25526;BME280;13424;48.424;11.258;2023-03-01T05:08:34;95996.09;;;1.83;66.85
25526;BME280;13424;48.424;11.258;2023-03-01T05:11:02;95996.78;;;1.77;66.81
25526;BME280;13424;48.424;11.258;2023-03-01T05:13:28;95990.59;;;1.70;66.91
25526;BME280;13424;48.424;11.258;2023-03-01T05:16:00;95991.78;;;1.90;66.69
25526;BME280;13424;48.424;11.258;2023-03-01T05:18:28;95988.38;;;1.59;67.74
25526;BME280;13424;48.424;11.258;2023-03-01T05:20:54;95993.88;;;1.95;66.69
25526;BME280;13424;48.424;11.258;2023-03-01T05:23:26;95993.97;;;1.56;67.87
25526;BME280;13424;48.424;11.258;2023-03-01T05:25:51;95991.53;;;1.77;66.43
25526;BME280;13424;48.424;11.258;2023-03-01T05:28:19;95985.47;;;2.00;66.26
25526;BME280;13424;48.424;11.258;2023-03-01T05:30:46;95985.84;;;1.65;66.58
25526;BME280;13424;48.424;11.258;2023-03-01T05:33:12;95983.06;;;1.90;66.15
25526;BME280;13424;48.424;11.258;2023-03-01T05:35:44;95987.09;;;1.78;65.71
25526;BME280;13424;48.424;11.258;2023-03-01T05:38:12;95991.09;;;2.11;65.50
25526;BME280;13424;48.424;11.258;2023-03-01T05:40:43;95987.03;;;1.63;66.83
25526;BME280;13424;48.424;11.258;2023-03-01T05:43:11;95985.09;;;1.80;65.82
25526;BME280;13424;48.424;11.258;2023-03-01T05:45:38;95995.41;;;1.66;66.56
25526;BME280;13424;48.424;11.258;2023-03-01T05:48:05;95994.53;;;1.74;65.85
25526;BME280;13424;48.424;11.258;2023-03-01T05:50:38;95994.16;;;1.23;67.66
25526;BME280;13424;48.424;11.258;2023-03-01T05:53:10;95997.22;;;1.66;66.62
25526;BME280;13424;48.424;11.258;2023-03-01T05:55:36;95991.06;;;1.74;65.94
25526;BME280;13424;48.424;11.258;2023-03-01T05:58:05;95992.47;;;1.84;65.97
25526;BME280;13424;48.424;11.258;2023-03-01T06:00:32;95985.19;;;0.62;68.73
25526;BME280;13424;48.424;11.258;2023-03-01T06:02:59;95997.09;;;1.59;67.15
25526;BME280;13424;48.424;11.258;2023-03-01T06:05:25;95990.41;;;1.72;66.90
25526;BME280;13424;48.424;11.258;2023-03-01T06:07:51;95997.47;;;1.48;66.24
25526;BME280;13424;48.424;11.258;2023-03-01T06:10:20;95994.69;;;1.19;68.14
25526;BME280;13424;48.424;11.258;2023-03-01T06:16:53;96000.31;;;1.92;65.89
25526;BME280;13424;48.424;11.258;2023-03-01T06:19:19;96003.00;;;1.84;66.17
25526;BME280;13424;48.424;11.258;2023-03-01T06:21:45;96008.25;;;1.84;65.73
25526;BME280;13424;48.424;11.258;2023-03-01T06:24:10;96008.25;;;1.84;66.17
25526;BME280;13424;48.424;11.258;2023-03-01T06:26:37;96004.88;;;1.99;65.72
25526;BME280;13424;48.424;11.258;2023-03-01T06:29:03;96009.41;;;2.05;64.84
25526;BME280;13424;48.424;11.258;2023-03-01T06:31:29;96005.50;;;2.01;65.41
25526;BME280;13424;48.424;11.258;2023-03-01T06:34:04;96011.28;;;2.19;65.55
25526;BME280;13424;48.424;11.258;2023-03-01T06:36:30;96009.66;;;1.95;66.02
25526;BME280;13424;48.424;11.258;2023-03-01T06:38:56;96006.50;;;2.00;65.53
25526;BME280;13424;48.424;11.258;2023-03-01T06:41:31;96013.84;;;1.81;66.32
25526;BME280;13424;48.424;11.258;2023-03-01T06:43:58;96005.75;;;1.37;66.94
25526;BME280;13424;48.424;11.258;2023-03-01T06:46:24;96005.94;;;2.27;65.26
25526;BME280;13424;48.424;11.258;2023-03-01T06:48:50;96001.66;;;1.34;66.51
25526;BME280;13424;48.424;11.258;2023-03-01T06:51:16;96009.84;;;1.93;65.72
25526;BME280;13424;48.424;11.258;2023-03-01T06:53:43;96008.69;;;2.34;65.12
25526;BME280;13424;48.424;11.258;2023-03-01T06:56:08;96007.94;;;1.79;65.88
25526;BME280;13424;48.424;11.258;2023-03-01T06:58:34;96014.66;;;2.05;65.60
25526;BME280;13424;48.424;11.258;2023-03-01T07:01:04;96012.34;;;2.10;65.92
25526;BME280;13424;48.424;11.258;2023-03-01T07:03:30;95999.94;;;1.95;66.40
25526;BME280;13424;48.424;11.258;2023-03-01T07:05:56;95993.69;;;1.51;66.23
25526;BME280;13424;48.424;11.258;2023-03-01T07:08:21;95994.97;;;1.55;67.05
25526;BME280;13424;48.424;11.258;2023-03-01T07:10:47;95999.47;;;1.69;67.15
25526;BME280;13424;48.424;11.258;2023-03-01T07:13:13;96009.00;;;1.70;67.59
25526;BME280;13424;48.424;11.258;2023-03-01T07:15:40;95996.53;;;2.10;66.36
25526;BME280;13424;48.424;11.258;2023-03-01T07:18:06;95998.22;;;2.78;64.04
25526;BME280;13424;48.424;11.258;2023-03-01T07:24:07;95992.16;;;2.02;65.31
25526;BME280;13424;48.424;11.258;2023-03-01T07:26:33;95998.28;;;2.99;63.58
25526;BME280;13424;48.424;11.258;2023-03-01T07:29:00;95988.75;;;2.98;63.44
25526;BME280;13424;48.424;11.258;2023-03-01T07:31:27;95986.59;;;2.20;66.13
25526;BME280;13424;48.424;11.258;2023-03-01T07:33:54;95984.84;;;2.65;64.61
25526;BME280;13424;48.424;11.258;2023-03-01T07:36:20;95980.75;;;2.47;65.15
25526;BME280;13424;48.424;11.258;2023-03-01T07:38:46;95979.94;;;2.47;65.29
25526;BME280;13424;48.424;11.258;2023-03-01T07:44:56;95969.22;;;2.48;64.34
25526;BME280;13424;48.424;11.258;2023-03-01T07:47:22;95970.22;;;2.47;64.96
25526;BME280;13424;48.424;11.258;2023-03-01T07:49:48;95971.81;;;2.34;65.26
25526;BME280;13424;48.424;11.258;2023-03-01T07:52:13;95976.94;;;2.50;65.54
25526;BME280;13424;48.424;11.258;2023-03-01T07:54:42;95966.81;;;2.24;65.24
25526;BME280;13424;48.424;11.258;2023-03-01T07:57:08;95962.09;;;1.96;65.84
25526;BME280;13424;48.424;11.258;2023-03-01T07:59:34;95973.75;;;2.99;64.00
25526;BME280;13424;48.424;11.258;2023-03-01T08:02:06;95969.97;;;2.72;64.19
25526;BME280;13424;48.424;11.258;2023-03-01T08:04:32;95965.03;;;2.39;63.34
25526;BME280;13424;48.424;11.258;2023-03-01T08:06:59;95967.84;;;2.67;63.36
25526;BME280;13424;48.424;11.258;2023-03-01T08:09:24;95959.13;;;2.96;62.42
25526;BME280;13424;48.424;11.258;2023-03-01T08:11:50;95966.59;;;2.63;63.38
25526;BME280;13424;48.424;11.258;2023-03-01T08:14:16;95957.94;;;3.14;62.59
25526;BME280;13424;48.424;11.258;2023-03-01T08:16:42;95958.22;;;3.04;62.22
25526;BME280;13424;48.424;11.258;2023-03-01T08:19:10;95963.41;;;2.97;61.96
25526;BME280;13424;48.424;11.258;2023-03-01T08:21:37;95961.09;;;3.24;62.20
25526;BME280;13424;48.424;11.258;2023-03-01T08:24:06;95966.50;;;3.01;61.98
25526;BME280;13424;48.424;11.258;2023-03-01T08:26:33;95958.50;;;2.79;62.23
25526;BME280;13424;48.424;11.258;2023-03-01T08:29:00;95959.94;;;3.12;62.39
25526;BME280;13424;48.424;11.258;2023-03-01T08:31:32;95947.41;;;3.50;61.22
25526;BME280;13424;48.424;11.258;2023-03-01T08:34:00;95952.78;;;3.63;60.43
25526;BME280;13424;48.424;11.258;2023-03-01T08:36:33;95955.06;;;3.30;61.38
25526;BME280;13424;48.424;11.258;2023-03-01T08:39:00;95945.94;;;3.47;60.73
25526;BME280;13424;48.424;11.258;2023-03-01T08:41:26;95951.97;;;3.62;62.00
25526;BME280;13424;48.424;11.258;2023-03-01T08:43:52;95953.47;;;4.14;60.46
25526;BME280;13424;48.424;11.258;2023-03-01T08:46:18;95944.72;;;3.64;59.93
25526;BME280;13424;48.424;11.258;2023-03-01T08:48:44;95949.56;;;3.46;60.44
25526;BME280;13424;48.424;11.258;2023-03-01T08:51:18;95943.69;;;3.44;61.82
25526;BME280;13424;48.424;11.258;2023-03-01T08:54:31;95945.81;;;3.55;61.19
25526;BME280;13424;48.424;11.258;2023-03-01T08:56:57;95944.56;;;3.15;61.74
25526;BME280;13424;48.424;11.258;2023-03-01T08:59:25;95945.22;;;3.17;61.85
25526;BME280;13424;48.424;11.258;2023-03-01T09:01:51;95949.41;;;3.12;61.56
25526;BME280;13424;48.424;11.258;2023-03-01T09:04:30;95944.81;;;3.35;61.82
25526;BME280;13424;48.424;11.258;2023-03-01T09:06:56;95941.03;;;3.87;60.57
25526;BME280;13424;48.424;11.258;2023-03-01T09:09:22;95935.03;;;3.50;60.24
25526;BME280;13424;48.424;11.258;2023-03-01T09:11:49;95935.44;;;3.32;61.54
25526;BME280;13424;48.424;11.258;2023-03-01T09:14:16;95939.88;;;4.17;60.74
25526;BME280;13424;48.424;11.258;2023-03-01T09:16:42;95935.03;;;3.72;60.77
25526;BME280;13424;48.424;11.258;2023-03-01T09:19:08;95926.19;;;4.29;59.93
25526;BME280;13424;48.424;11.258;2023-03-01T09:21:34;95930.81;;;3.99;60.55
25526;BME280;13424;48.424;11.258;2023-03-01T09:27:31;95925.06;;;4.79;58.46
25526;BME280;13424;48.424;11.258;2023-03-01T09:29:57;95926.88;;;4.79;57.61
25526;BME280;13424;48.424;11.258;2023-03-01T09:32:23;95934.06;;;4.57;58.34
25526;BME280;13424;48.424;11.258;2023-03-01T09:34:48;95930.81;;;3.99;59.64
25526;BME280;13424;48.424;11.258;2023-03-01T09:37:29;95937.91;;;4.19;59.59
25526;BME280;13424;48.424;11.258;2023-03-01T09:39:55;95928.63;;;4.65;59.59
25526;BME280;13424;48.424;11.258;2023-03-01T09:42:21;95927.75;;;4.86;58.82
25526;BME280;13424;48.424;11.258;2023-03-01T09:45:07;95928.16;;;4.83;58.23
25526;BME280;13424;48.424;11.258;2023-03-01T09:47:36;95919.56;;;5.28;57.93
25526;BME280;13424;48.424;11.258;2023-03-01T09:50:16;95915.72;;;5.24;58.61
25526;BME280;13424;48.424;11.258;2023-03-01T09:53:03;95919.44;;;5.50;57.70
25526;BME280;13424;48.424;11.258;2023-03-01T09:58:39;95907.59;;;5.32;59.12
25526;BME280;13424;48.424;11.258;2023-03-01T10:01:58;95904.28;;;5.17;58.13
25526;BME280;13424;48.424;11.258;2023-03-01T10:04:52;95886.63;;;4.76;59.22
25526;BME280;13424;48.424;11.258;2023-03-01T10:10:34;95893.38;;;5.40;57.74
25526;BME280;13424;48.424;11.258;2023-03-01T10:16:44;95896.94;;;5.13;58.52
25526;BME280;13424;48.424;11.258;2023-03-01T10:19:20;95896.41;;;5.30;58.36
25526;BME280;13424;48.424;11.258;2023-03-01T10:21:48;95890.00;;;4.98;57.45
25526;BME280;13424;48.424;11.258;2023-03-01T10:24:18;95889.31;;;5.51;57.07
25526;BME280;13424;48.424;11.258;2023-03-01T10:26:57;95893.16;;;5.42;57.07
25526;BME280;13424;48.424;11.258;2023-03-01T10:29:36;95886.81;;;5.23;57.92
25526;BME280;13424;48.424;11.258;2023-03-01T10:32:03;95886.56;;;6.19;56.97
25526;BME280;13424;48.424;11.258;2023-03-01T10:34:36;95878.34;;;5.67;57.60
25526;BME280;13424;48.424;11.258;2023-03-01T10:41:08;95874.03;;;6.72;56.81
25526;BME280;13424;48.424;11.258;2023-03-01T10:44:34;95863.28;;;6.47;55.81
25526;BME280;13424;48.424;11.258;2023-03-01T10:47:00;95852.72;;;6.27;55.58
25526;BME280;13424;48.424;11.258;2023-03-01T10:49:27;95854.34;;;6.15;55.21
25526;BME280;13424;48.424;11.258;2023-03-01T10:51:53;95861.47;;;6.21;57.64
25526;BME280;13424;48.424;11.258;2023-03-01T10:58:30;95847.66;;;6.90;57.22
25526;BME280;13424;48.424;11.258;2023-03-01T11:01:06;95845.41;;;6.03;56.40
25526;BME280;13424;48.424;11.258;2023-03-01T11:04:12;95844.81;;;5.94;55.24
25526;BME280;13424;48.424;11.258;2023-03-01T11:06:41;95837.59;;;6.48;56.13
25526;BME280;13424;48.424;11.258;2023-03-01T11:09:22;95845.38;;;6.23;57.96
25526;BME280;13424;48.424;11.258;2023-03-01T11:11:59;95835.78;;;5.69;58.25
25526;BME280;13424;48.424;11.258;2023-03-01T11:14:36;95834.41;;;5.99;58.76
25526;BME280;13424;48.424;11.258;2023-03-01T11:17:13;95826.59;;;6.37;58.36
25526;BME280;13424;48.424;11.258;2023-03-01T11:19:42;95826.84;;;6.16;57.75
25526;BME280;13424;48.424;11.258;2023-03-01T11:22:17;95813.25;;;6.70;56.77
25526;BME280;13424;48.424;11.258;2023-03-01T11:24:49;95820.47;;;6.50;57.83
25526;BME280;13424;48.424;11.258;2023-03-01T11:27:23;95810.72;;;6.31;57.68
25526;BME280;13424;48.424;11.258;2023-03-01T11:35:58;95802.00;;;6.82;56.12
25526;BME280;13424;48.424;11.258;2023-03-01T11:42:19;95787.03;;;6.56;57.14
25526;BME280;13424;48.424;11.258;2023-03-01T11:44:59;95787.09;;;6.29;58.89
25526;BME280;13424;48.424;11.258;2023-03-01T11:50:47;95771.13;;;6.56;59.69
25526;BME280;13424;48.424;11.258;2023-03-01T11:54:05;95766.19;;;6.66;58.93
25526;BME280;13424;48.424;11.258;2023-03-01T11:56:47;95763.38;;;6.48;56.67
25526;BME280;13424;48.424;11.258;2023-03-01T11:59:45;95761.25;;;6.69;57.82
25526;BME280;13424;48.424;11.258;2023-03-01T12:08:11;95745.22;;;7.77;56.17
25526;BME280;13424;48.424;11.258;2023-03-01T12:11:23;95750.59;;;7.46;56.53
25526;BME280;13424;48.424;11.258;2023-03-01T12:20:04;95744.25;;;7.72;54.85
25526;BME280;13424;48.424;11.258;2023-03-01T12:25:54;95731.75;;;7.97;53.84
25526;BME280;13424;48.424;11.258;2023-03-01T12:31:51;95723.25;;;6.89;56.79
25526;BME280;13424;48.424;11.258;2023-03-01T12:47:25;95710.53;;;7.54;56.17
25526;BME280;13424;48.424;11.258;2023-03-01T12:53:01;95703.09;;;7.63;56.84
25526;BME280;13424;48.424;11.258;2023-03-01T12:55:37;95701.66;;;7.85;56.92
25526;BME280;13424;48.424;11.258;2023-03-01T13:01:56;95681.66;;;7.82;58.24
25526;BME280;13424;48.424;11.258;2023-03-01T13:04:40;95680.59;;;7.65;57.80
25526;BME280;13424;48.424;11.258;2023-03-01T13:10:26;95697.22;;;7.79;57.34
25526;BME280;13424;48.424;11.258;2023-03-01T13:17:58;95696.53;;;8.75;55.14
25526;BME280;13424;48.424;11.258;2023-03-01T13:20:47;95689.50;;;8.81;55.61
25526;BME280;13424;48.424;11.258;2023-03-01T13:26:13;95697.97;;;8.59;55.61
25526;BME280;13424;48.424;11.258;2023-03-01T13:39:26;95713.69;;;9.21;53.54
25526;BME280;13424;48.424;11.258;2023-03-01T13:41:54;95706.25;;;8.51;56.22
25526;BME280;13424;48.424;11.258;2023-03-01T13:48:29;95711.41;;;8.64;54.76
25526;BME280;13424;48.424;11.258;2023-03-01T13:51:05;95701.50;;;9.13;54.78
25526;BME280;13424;48.424;11.258;2023-03-01T13:53:44;95700.47;;;9.14;55.96
25526;BME280;13424;48.424;11.258;2023-03-01T13:56:15;95695.81;;;8.98;54.92
25526;BME280;13424;48.424;11.258;2023-03-01T14:05:36;95682.25;;;9.88;52.89
25526;BME280;13424;48.424;11.258;2023-03-01T14:08:04;95675.41;;;9.92;51.85
25526;BME280;13424;48.424;11.258;2023-03-01T14:10:43;95683.16;;;9.47;54.73
25526;BME280;13424;48.424;11.258;2023-03-01T14:16:45;95687.88;;;9.10;54.51
25526;BME280;13424;48.424;11.258;2023-03-01T14:19:21;95676.06;;;8.76;56.07
25526;BME280;13424;48.424;11.258;2023-03-01T14:22:27;95672.78;;;9.81;53.61
25526;BME280;13424;48.424;11.258;2023-03-01T14:25:03;95673.28;;;9.12;54.83
25526;BME280;13424;48.424;11.258;2023-03-01T14:27:39;95687.22;;;9.61;53.63
25526;BME280;13424;48.424;11.258;2023-03-01T14:30:24;95677.59;;;9.25;53.91
25526;BME280;13424;48.424;11.258;2023-03-01T14:33:03;95676.59;;;8.96;55.42
25526;BME280;13424;48.424;11.258;2023-03-01T14:35:33;95681.88;;;9.26;55.36
25526;BME280;13424;48.424;11.258;2023-03-01T14:38:00;95670.56;;;8.89;54.70
25526;BME280;13424;48.424;11.258;2023-03-01T14:40:34;95668.63;;;9.08;54.57
25526;BME280;13424;48.424;11.258;2023-03-01T14:43:09;95657.50;;;9.64;53.75
25526;BME280;13424;48.424;11.258;2023-03-01T14:45:36;95664.44;;;9.65;54.35
25526;BME280;13424;48.424;11.258;2023-03-01T14:48:04;95657.94;;;9.96;53.59
25526;BME280;13424;48.424;11.258;2023-03-01T14:50:36;95660.06;;;8.94;55.35
25526;BME280;13424;48.424;11.258;2023-03-01T14:53:06;95645.44;;;9.27;54.73
25526;BME280;13424;48.424;11.258;2023-03-01T14:55:41;95649.25;;;9.42;54.59
25526;BME280;13424;48.424;11.258;2023-03-01T14:58:15;95634.34;;;8.46;56.69
25526;BME280;13424;48.424;11.258;2023-03-01T15:01:03;95633.59;;;9.22;55.13
25526;BME280;13424;48.424;11.258;2023-03-01T15:03:45;95630.50;;;9.61;53.55
25526;BME280;13424;48.424;11.258;2023-03-01T15:06:18;95629.00;;;9.65;54.26
25526;BME280;13424;48.424;11.258;2023-03-01T15:08:51;95621.81;;;9.54;54.60
25526;BME280;13424;48.424;11.258;2023-03-01T15:11:33;95621.22;;;9.40;54.70
25526;BME280;13424;48.424;11.258;2023-03-01T15:13:59;95613.78;;;8.95;54.78
25526;BME280;13424;48.424;11.258;2023-03-01T15:16:31;95614.56;;;8.72;55.62
25526;BME280;13424;48.424;11.258;2023-03-01T15:19:01;95612.47;;;8.74;56.94
25526;BME280;13424;48.424;11.258;2023-03-01T15:21:34;95618.50;;;8.70;56.02
25526;BME280;13424;48.424;11.258;2023-03-01T15:26:52;95623.78;;;9.58;54.06
25526;BME280;13424;48.424;11.258;2023-03-01T15:29:28;95618.41;;;9.00;55.51
25526;BME280;13424;48.424;11.258;2023-03-01T15:32:04;95611.28;;;9.12;55.02
25526;BME280;13424;48.424;11.258;2023-03-01T15:34:37;95620.25;;;8.87;56.00
25526;BME280;13424;48.424;11.258;2023-03-01T15:37:32;95611.34;;;8.82;56.32
25526;BME280;13424;48.424;11.258;2023-03-01T15:39:56;95619.59;;;9.15;55.37
25526;BME280;13424;48.424;11.258;2023-03-01T15:45:31;95627.44;;;8.99;55.82
25526;BME280;13424;48.424;11.258;2023-03-01T15:48:14;95632.00;;;9.21;55.86